sensor_id;sensor_type;location;lat;lon;timestamp;P1;durP1;ratioP1;P2;durP2;ratioP2
74741;SDS011;63265;48.288;16.314;2022-09-17T05:37:41;15.32;;;3.70;;
74741;SDS011;63265;48.288;16.314;2022-09-17T05:40:07;12.45;;;3.95;;
74741;SDS011;63265;48.288;16.314;2022-09-17T05:42:33;13.05;;;4.15;;
74741;SDS011;63265;48.288;16.314;2022-09-17T05:44:59;13.13;;;3.63;;
74741;SDS011;63265;48.288;16.314;2022-09-17T05:47:24;14.45;;;3.90;;
74741;SDS011;63265;48.288;16.314;2022-09-17T05:49:50;19.30;;;3.92;;
74741;SDS011;63265;48.288;16.314;2022-09-17T05:52:16;16.30;;;4.05;;
74741;SDS011;63265;48.288;16.314;2022-09-17T05:54:41;54.03;;;6.25;;
74741;SDS011;63265;48.288;16.314;2022-09-17T05:57:07;31.25;;;5.50;;
74741;SDS011;63265;48.288;16.314;2022-09-17T05:59:33;36.83;;;4.70;;
74741;SDS011;63265;48.288;16.314;2022-09-17T06:01:59;25.55;;;4.90;;
74741;SDS011;63265;48.288;16.314;2022-09-17T06:04:25;24.45;;;4.80;;
74741;SDS011;63265;48.288;16.314;2022-09-17T06:06:51;26.10;;;5.10;;
74741;SDS011;63265;48.288;16.314;2022-09-17T06:09:16;23.23;;;4.65;;
74741;SDS011;63265;48.288;16.314;2022-09-17T06:11:42;22.15;;;4.70;;
74741;SDS011;63265;48.288;16.314;2022-09-17T06:14:08;24.10;;;5.13;;
74741;SDS011;63265;48.288;16.314;2022-09-17T06:16:34;26.85;;;4.43;;
74741;SDS011;63265;48.288;16.314;2022-09-17T06:18:59;22.90;;;4.93;;
74741;SDS011;63265;48.288;16.314;2022-09-17T06:21:25;25.92;;;4.50;;
74741;SDS011;63265;48.288;16.314;2022-09-17T06:23:50;22.77;;;4.20;;
74741;SDS011;63265;48.288;16.314;2022-09-17T06:26:17;24.52;;;4.75;;
74741;SDS011;63265;48.288;16.314;2022-09-17T06:28:42;13.30;;;3.83;;
74741;SDS011;63265;48.288;16.314;2022-09-17T06:31:09;12.38;;;3.67;;
74741;SDS011;63265;48.288;16.314;2022-09-17T06:33:36;12.30;;;3.90;;
74741;SDS011;63265;48.288;16.314;2022-09-17T06:36:03;18.30;;;4.25;;
74741;SDS011;63265;48.288;16.314;2022-09-17T06:38:31;19.50;;;3.58;;
74741;SDS011;63265;48.288;16.314;2022-09-17T06:40:58;14.10;;;3.38;;
74741;SDS011;63265;48.288;16.314;2022-09-17T06:43:24;20.00;;;3.80;;
74741;SDS011;63265;48.288;16.314;2022-09-17T06:45:56;13.70;;;3.88;;
74741;SDS011;63265;48.288;16.314;2022-09-17T06:48:23;15.63;;;3.63;;
74741;SDS011;63265;48.288;16.314;2022-09-17T06:50:51;9.68;;;3.75;;
74741;SDS011;63265;48.288;16.314;2022-09-17T06:53:18;12.45;;;3.40;;
74741;SDS011;63265;48.288;16.314;2022-09-17T06:55:48;13.35;;;3.22;;
74741;SDS011;63265;48.288;16.314;2022-09-17T06:58:14;13.18;;;3.47;;
74741;SDS011;63265;48.288;16.314;2022-09-17T07:00:40;7.40;;;3.15;;
74741;SDS011;63265;48.288;16.314;2022-09-17T07:03:05;7.32;;;2.92;;
74741;SDS011;63265;48.288;16.314;2022-09-17T07:05:31;12.05;;;3.20;;
74741;SDS011;63265;48.288;16.314;2022-09-17T07:07:59;5.38;;;3.22;;
74741;SDS011;63265;48.288;16.314;2022-09-17T07:10:27;8.25;;;2.78;;
74741;SDS011;63265;48.288;16.314;2022-09-17T07:12:53;9.02;;;2.92;;
74741;SDS011;63265;48.288;16.314;2022-09-17T07:15:18;9.45;;;3.10;;
74741;SDS011;63265;48.288;16.314;2022-09-17T07:17:44;6.85;;;2.78;;
74741;SDS011;63265;48.288;16.314;2022-09-17T07:20:10;6.10;;;3.13;;
74741;SDS011;63265;48.288;16.314;2022-09-17T07:22:36;8.57;;;2.70;;
74741;SDS011;63265;48.288;16.314;2022-09-17T07:25:02;7.63;;;2.92;;
74741;SDS011;63265;48.288;16.314;2022-09-17T07:27:29;5.22;;;2.53;;
74741;SDS011;63265;48.288;16.314;2022-09-17T07:29:55;12.27;;;2.97;;
74741;SDS011;63265;48.288;16.314;2022-09-17T07:32:21;8.07;;;2.53;;
74741;SDS011;63265;48.288;16.314;2022-09-17T07:34:47;6.55;;;2.70;;
74741;SDS011;63265;48.288;16.314;2022-09-17T07:37:13;5.03;;;2.42;;
74741;SDS011;63265;48.288;16.314;2022-09-17T07:39:39;5.25;;;2.78;;
74741;SDS011;63265;48.288;16.314;2022-09-17T07:42:06;5.93;;;2.75;;
74741;SDS011;63265;48.288;16.314;2022-09-17T07:44:32;8.57;;;2.78;;
74741;SDS011;63265;48.288;16.314;2022-09-17T07:46:57;5.15;;;2.65;;
74741;SDS011;63265;48.288;16.314;2022-09-17T07:49:23;5.65;;;2.40;;
74741;SDS011;63265;48.288;16.314;2022-09-17T07:51:49;3.88;;;2.50;;
74741;SDS011;63265;48.288;16.314;2022-09-17T07:54:14;5.93;;;2.35;;
74741;SDS011;63265;48.288;16.314;2022-09-17T07:56:40;6.00;;;2.58;;
74741;SDS011;63265;48.288;16.314;2022-09-17T07:59:05;5.20;;;2.67;;
74741;SDS011;63265;48.288;16.314;2022-09-17T08:01:31;4.35;;;2.55;;
74741;SDS011;63265;48.288;16.314;2022-09-17T08:04:00;4.32;;;2.50;;
74741;SDS011;63265;48.288;16.314;2022-09-17T08:06:27;4.80;;;2.70;;
74741;SDS011;63265;48.288;16.314;2022-09-17T08:08:57;5.97;;;2.30;;
74741;SDS011;63265;48.288;16.314;2022-09-17T08:11:26;5.18;;;2.47;;
74741;SDS011;63265;48.288;16.314;2022-09-17T08:13:53;4.63;;;2.60;;
74741;SDS011;63265;48.288;16.314;2022-09-17T08:16:19;4.80;;;2.40;;
74741;SDS011;63265;48.288;16.314;2022-09-17T08:18:47;3.30;;;2.13;;
74741;SDS011;63265;48.288;16.314;2022-09-17T08:21:14;6.97;;;2.40;;
74741;SDS011;63265;48.288;16.314;2022-09-17T08:23:42;3.20;;;2.08;;
74741;SDS011;63265;48.288;16.314;2022-09-17T08:26:12;4.03;;;2.40;;
74741;SDS011;63265;48.288;16.314;2022-09-17T08:28:39;4.68;;;2.35;;
74741;SDS011;63265;48.288;16.314;2022-09-17T08:31:08;4.93;;;2.13;;
74741;SDS011;63265;48.288;16.314;2022-09-17T08:33:38;4.00;;;2.33;;
74741;SDS011;63265;48.288;16.314;2022-09-17T08:36:06;2.75;;;2.08;;
74741;SDS011;63265;48.288;16.314;2022-09-17T08:38:34;4.13;;;2.03;;
74741;SDS011;63265;48.288;16.314;2022-09-17T08:41:26;2.80;;;2.13;;
74741;SDS011;63265;48.288;16.314;2022-09-17T08:46:52;4.80;;;2.30;;
74741;SDS011;63265;48.288;16.314;2022-09-17T08:55:05;5.38;;;2.30;;
74741;SDS011;63265;48.288;16.314;2022-09-17T09:00:16;4.00;;;2.40;;
74741;SDS011;63265;48.288;16.314;2022-09-17T09:05:50;5.38;;;2.22;;
74741;SDS011;63265;48.288;16.314;2022-09-17T09:10:57;4.43;;;2.05;;
74741;SDS011;63265;48.288;16.314;2022-09-17T09:13:31;3.35;;;1.90;;
74741;SDS011;63265;48.288;16.314;2022-09-17T09:16:05;5.28;;;2.08;;
74741;SDS011;63265;48.288;16.314;2022-09-17T09:18:43;5.50;;;1.92;;
74741;SDS011;63265;48.288;16.314;2022-09-17T09:23:47;3.63;;;1.77;;
74741;SDS011;63265;48.288;16.314;2022-09-17T09:26:19;2.63;;;1.70;;
74741;SDS011;63265;48.288;16.314;2022-09-17T09:28:53;3.20;;;1.92;;
74741;SDS011;63265;48.288;16.314;2022-09-17T09:31:33;3.33;;;1.70;;
74741;SDS011;63265;48.288;16.314;2022-09-17T09:34:13;2.75;;;1.70;;
74741;SDS011;63265;48.288;16.314;2022-09-17T09:36:39;2.20;;;1.70;;
74741;SDS011;63265;48.288;16.314;2022-09-17T09:39:17;3.33;;;1.80;;
74741;SDS011;63265;48.288;16.314;2022-09-17T09:44:18;3.33;;;1.58;;
74741;SDS011;63265;48.288;16.314;2022-09-17T09:49:45;3.20;;;1.95;;
74741;SDS011;63265;48.288;16.314;2022-09-17T09:58:37;2.38;;;1.63;;
74741;SDS011;63265;48.288;16.314;2022-09-17T10:01:12;2.72;;;1.65;;
74741;SDS011;63265;48.288;16.314;2022-09-17T10:03:46;3.97;;;1.80;;
74741;SDS011;63265;48.288;16.314;2022-09-17T10:06:13;4.90;;;1.70;;
74741;SDS011;63265;48.288;16.314;2022-09-17T10:09:25;2.33;;;1.52;;
74741;SDS011;63265;48.288;16.314;2022-09-17T10:11:26;2.65;;;1.60;;
74741;SDS011;63265;48.288;16.314;2022-09-17T10:14:12;2.72;;;1.58;;
74741;SDS011;63265;48.288;16.314;2022-09-17T10:16:38;2.30;;;1.60;;
74741;SDS011;63265;48.288;16.314;2022-09-17T10:21:30;4.03;;;1.65;;
74741;SDS011;63265;48.288;16.314;2022-09-17T10:23:56;1.33;;;1.23;;
74741;SDS011;63265;48.288;16.314;2022-09-17T10:26:25;2.47;;;1.63;;
74741;SDS011;63265;48.288;16.314;2022-09-17T10:28:54;1.65;;;1.30;;
74741;SDS011;63265;48.288;16.314;2022-09-17T10:31:22;2.90;;;1.58;;
74741;SDS011;63265;48.288;16.314;2022-09-17T10:33:52;1.83;;;1.40;;
74741;SDS011;63265;48.288;16.314;2022-09-17T10:36:43;1.70;;;1.60;;
74741;SDS011;63265;48.288;16.314;2022-09-17T10:39:33;3.30;;;1.70;;
74741;SDS011;63265;48.288;16.314;2022-09-17T10:44:35;2.55;;;1.40;;
74741;SDS011;63265;48.288;16.314;2022-09-17T10:47:03;2.42;;;1.50;;
74741;SDS011;63265;48.288;16.314;2022-09-17T10:49:43;2.75;;;1.55;;
74741;SDS011;63265;48.288;16.314;2022-09-17T10:52:34;2.00;;;1.42;;
74741;SDS011;63265;48.288;16.314;2022-09-17T11:00:18;2.40;;;1.52;;
74741;SDS011;63265;48.288;16.314;2022-09-17T11:05:56;3.33;;;1.65;;
74741;SDS011;63265;48.288;16.314;2022-09-17T11:16:39;2.40;;;1.58;;
74741;SDS011;63265;48.288;16.314;2022-09-17T11:22:44;2.60;;;1.77;;
74741;SDS011;63265;48.288;16.314;2022-09-17T11:25:24;1.48;;;1.38;;
74741;SDS011;63265;48.288;16.314;2022-09-17T11:36:20;3.72;;;1.65;;
74741;SDS011;63265;48.288;16.314;2022-09-17T11:38:52;2.10;;;1.30;;
74741;SDS011;63265;48.288;16.314;2022-09-17T11:41:24;1.90;;;1.52;;
74741;SDS011;63265;48.288;16.314;2022-09-17T11:46:43;2.08;;;1.42;;
74741;SDS011;63265;48.288;16.314;2022-09-17T11:51:54;2.05;;;1.50;;
74741;SDS011;63265;48.288;16.314;2022-09-17T11:54:24;2.80;;;1.50;;
74741;SDS011;63265;48.288;16.314;2022-09-17T11:56:56;1.15;;;1.05;;
74741;SDS011;63265;48.288;16.314;2022-09-17T12:09:37;2.08;;;1.63;;
74741;SDS011;63265;48.288;16.314;2022-09-17T12:14:48;2.17;;;1.30;;
74741;SDS011;63265;48.288;16.314;2022-09-17T12:17:22;2.30;;;1.50;;
74741;SDS011;63265;48.288;16.314;2022-09-17T12:19:53;1.90;;;1.30;;
74741;SDS011;63265;48.288;16.314;2022-09-17T12:22:24;2.13;;;1.10;;
74741;SDS011;63265;48.288;16.314;2022-09-17T12:24:52;3.75;;;1.30;;
74741;SDS011;63265;48.288;16.314;2022-09-17T12:40:54;2.80;;;1.27;;
74741;SDS011;63265;48.288;16.314;2022-09-17T12:46:05;2.10;;;1.20;;
74741;SDS011;63265;48.288;16.314;2022-09-17T12:54:10;1.83;;;1.60;;
74741;SDS011;63265;48.288;16.314;2022-09-17T13:04:59;2.45;;;1.30;;
74741;SDS011;63265;48.288;16.314;2022-09-17T13:07:51;1.80;;;1.40;;
74741;SDS011;63265;48.288;16.314;2022-09-17T13:21:32;3.60;;;1.58;;
74741;SDS011;63265;48.288;16.314;2022-09-17T13:24:17;2.58;;;1.30;;
74741;SDS011;63265;48.288;16.314;2022-09-17T13:26:46;2.40;;;1.70;;
74741;SDS011;63265;48.288;16.314;2022-09-17T13:29:30;4.22;;;1.50;;
74741;SDS011;63265;48.288;16.314;2022-09-17T13:37:31;2.78;;;1.40;;
74741;SDS011;63265;48.288;16.314;2022-09-17T13:39:59;1.65;;;1.23;;
74741;SDS011;63265;48.288;16.314;2022-09-17T13:42:30;3.13;;;1.48;;
74741;SDS011;63265;48.288;16.314;2022-09-17T13:45:10;1.95;;;1.25;;
74741;SDS011;63265;48.288;16.314;2022-09-17T13:47:51;3.83;;;1.60;;
74741;SDS011;63265;48.288;16.314;2022-09-17T13:50:31;2.95;;;1.33;;
74741;SDS011;63265;48.288;16.314;2022-09-17T13:52:58;2.90;;;1.52;;
74741;SDS011;63265;48.288;16.314;2022-09-17T13:58:04;1.73;;;1.40;;
74741;SDS011;63265;48.288;16.314;2022-09-17T14:05:55;2.05;;;1.40;;
74741;SDS011;63265;48.288;16.314;2022-09-17T14:08:23;2.20;;;1.50;;
74741;SDS011;63265;48.288;16.314;2022-09-17T14:10:54;1.88;;;1.30;;
74741;SDS011;63265;48.288;16.314;2022-09-17T14:13:24;1.88;;;1.20;;
74741;SDS011;63265;48.288;16.314;2022-09-17T14:15:55;3.08;;;1.40;;
74741;SDS011;63265;48.288;16.314;2022-09-17T14:21:14;2.15;;;1.45;;
74741;SDS011;63265;48.288;16.314;2022-09-17T14:23:52;1.90;;;1.20;;
74741;SDS011;63265;48.288;16.314;2022-09-17T14:27:03;1.27;;;1.13;;
74741;SDS011;63265;48.288;16.314;2022-09-17T14:32:18;1.55;;;1.40;;
74741;SDS011;63265;48.288;16.314;2022-09-17T14:34:56;2.92;;;1.58;;
74741;SDS011;63265;48.288;16.314;2022-09-17T14:37:23;2.45;;;1.42;;
74741;SDS011;63265;48.288;16.314;2022-09-17T14:39:49;3.03;;;1.60;;
74741;SDS011;63265;48.288;16.314;2022-09-17T14:42:20;1.30;;;1.20;;
74741;SDS011;63265;48.288;16.314;2022-09-17T14:44:55;2.53;;;1.50;;
74741;SDS011;63265;48.288;16.314;2022-09-17T14:47:23;2.05;;;1.50;;
74741;SDS011;63265;48.288;16.314;2022-09-17T14:49:50;2.08;;;1.08;;
74741;SDS011;63265;48.288;16.314;2022-09-17T14:52:21;1.65;;;1.17;;
74741;SDS011;63265;48.288;16.314;2022-09-17T14:55:39;1.80;;;1.40;;
74741;SDS011;63265;48.288;16.314;2022-09-17T14:57:41;1.92;;;1.42;;
74741;SDS011;63265;48.288;16.314;2022-09-17T15:00:21;2.35;;;1.58;;
74741;SDS011;63265;48.288;16.314;2022-09-17T15:02:53;1.83;;;1.38;;
74741;SDS011;63265;48.288;16.314;2022-09-17T15:07:50;2.67;;;1.40;;
74741;SDS011;63265;48.288;16.314;2022-09-17T15:10:19;2.53;;;1.48;;
74741;SDS011;63265;48.288;16.314;2022-09-17T15:12:47;2.83;;;1.42;;
74741;SDS011;63265;48.288;16.314;2022-09-17T15:15:23;1.58;;;1.20;;
74741;SDS011;63265;48.288;16.314;2022-09-17T15:17:51;1.80;;;1.30;;
74741;SDS011;63265;48.288;16.314;2022-09-17T15:20:27;1.65;;;1.50;;
74741;SDS011;63265;48.288;16.314;2022-09-17T15:25:28;1.40;;;1.17;;
74741;SDS011;63265;48.288;16.314;2022-09-17T15:27:55;1.73;;;1.17;;
74741;SDS011;63265;48.288;16.314;2022-09-17T15:30:23;2.75;;;1.30;;
74741;SDS011;63265;48.288;16.314;2022-09-17T15:35:20;1.58;;;1.17;;
74741;SDS011;63265;48.288;16.314;2022-09-17T15:37:47;3.72;;;1.60;;
74741;SDS011;63265;48.288;16.314;2022-09-17T15:43:00;1.83;;;1.27;;
74741;SDS011;63265;48.288;16.314;2022-09-17T15:45:30;2.22;;;1.40;;
74741;SDS011;63265;48.288;16.314;2022-09-17T15:48:01;2.25;;;1.40;;
74741;SDS011;63265;48.288;16.314;2022-09-17T15:50:28;1.85;;;1.30;;
74741;SDS011;63265;48.288;16.314;2022-09-17T15:53:09;4.68;;;1.50;;
74741;SDS011;63265;48.288;16.314;2022-09-17T15:55:37;1.50;;;1.25;;
74741;SDS011;63265;48.288;16.314;2022-09-17T15:58:22;2.13;;;1.23;;
74741;SDS011;63265;48.288;16.314;2022-09-17T16:11:25;2.33;;;1.27;;
74741;SDS011;63265;48.288;16.314;2022-09-17T16:13:55;1.33;;;1.10;;
74741;SDS011;63265;48.288;16.314;2022-09-17T16:16:26;2.03;;;1.40;;
74741;SDS011;63265;48.288;16.314;2022-09-17T16:19:00;0.98;;;0.98;;
74741;SDS011;63265;48.288;16.314;2022-09-17T16:21:27;2.88;;;1.48;;
74741;SDS011;63265;48.288;16.314;2022-09-17T16:23:53;2.20;;;1.45;;
74741;SDS011;63265;48.288;16.314;2022-09-17T16:26:19;1.60;;;1.00;;
74741;SDS011;63265;48.288;16.314;2022-09-17T16:28:49;1.98;;;1.40;;
74741;SDS011;63265;48.288;16.314;2022-09-17T16:31:18;1.77;;;1.30;;
74741;SDS011;63265;48.288;16.314;2022-09-17T16:33:44;2.13;;;1.20;;
74741;SDS011;63265;48.288;16.314;2022-09-17T16:36:10;1.20;;;1.10;;
74741;SDS011;63265;48.288;16.314;2022-09-17T16:38:35;1.80;;;1.20;;
74741;SDS011;63265;48.288;16.314;2022-09-17T16:41:05;1.73;;;1.30;;
74741;SDS011;63265;48.288;16.314;2022-09-17T16:43:31;1.85;;;1.25;;
74741;SDS011;63265;48.288;16.314;2022-09-17T16:46:04;1.95;;;1.10;;
74741;SDS011;63265;48.288;16.314;2022-09-17T16:48:31;1.20;;;1.10;;
74741;SDS011;63265;48.288;16.314;2022-09-17T16:50:58;1.17;;;1.08;;
74741;SDS011;63265;48.288;16.314;2022-09-17T16:53:25;1.20;;;1.08;;
74741;SDS011;63265;48.288;16.314;2022-09-17T16:55:51;1.20;;;1.10;;
74741;SDS011;63265;48.288;16.314;2022-09-17T16:58:17;1.83;;;1.20;;
74741;SDS011;63265;48.288;16.314;2022-09-17T17:00:43;1.10;;;1.00;;
74741;SDS011;63265;48.288;16.314;2022-09-17T17:03:12;1.75;;;1.20;;
74741;SDS011;63265;48.288;16.314;2022-09-17T17:05:38;1.40;;;1.23;;
74741;SDS011;63265;48.288;16.314;2022-09-17T17:08:04;1.38;;;1.27;;
74741;SDS011;63265;48.288;16.314;2022-09-17T17:10:31;0.90;;;0.90;;
74741;SDS011;63265;48.288;16.314;2022-09-17T17:12:56;1.23;;;1.05;;
74741;SDS011;63265;48.288;16.314;2022-09-17T17:15:22;1.35;;;1.00;;
74741;SDS011;63265;48.288;16.314;2022-09-17T17:17:48;1.70;;;1.10;;
74741;SDS011;63265;48.288;16.314;2022-09-17T17:20:14;1.33;;;1.10;;
74741;SDS011;63265;48.288;16.314;2022-09-17T17:22:41;1.10;;;1.00;;
74741;SDS011;63265;48.288;16.314;2022-09-17T17:25:11;0.90;;;0.90;;
74741;SDS011;63265;48.288;16.314;2022-09-17T17:27:37;1.52;;;1.05;;
74741;SDS011;63265;48.288;16.314;2022-09-17T17:30:04;1.30;;;1.00;;
74741;SDS011;63265;48.288;16.314;2022-09-17T17:32:33;1.15;;;1.00;;
74741;SDS011;63265;48.288;16.314;2022-09-17T17:34:59;0.95;;;0.90;;
74741;SDS011;63265;48.288;16.314;2022-09-17T17:37:25;1.20;;;1.10;;
74741;SDS011;63265;48.288;16.314;2022-09-17T17:39:50;1.30;;;0.98;;
74741;SDS011;63265;48.288;16.314;2022-09-17T17:42:17;0.82;;;0.82;;
74741;SDS011;63265;48.288;16.314;2022-09-17T17:44:42;1.67;;;1.00;;
74741;SDS011;63265;48.288;16.314;2022-09-17T17:47:08;1.85;;;1.10;;
74741;SDS011;63265;48.288;16.314;2022-09-17T17:49:33;2.15;;;0.95;;
74741;SDS011;63265;48.288;16.314;2022-09-17T17:51:59;1.08;;;0.98;;
74741;SDS011;63265;48.288;16.314;2022-09-17T17:54:25;1.02;;;0.93;;
74741;SDS011;63265;48.288;16.314;2022-09-17T17:56:52;1.10;;;1.00;;
74741;SDS011;63265;48.288;16.314;2022-09-17T17:59:18;1.13;;;0.98;;
74741;SDS011;63265;48.288;16.314;2022-09-17T18:01:44;1.10;;;1.00;;
74741;SDS011;63265;48.288;16.314;2022-09-17T18:04:09;1.08;;;0.98;;
74741;SDS011;63265;48.288;16.314;2022-09-17T18:06:35;1.20;;;1.00;;
74741;SDS011;63265;48.288;16.314;2022-09-17T18:09:01;1.10;;;1.00;;
74741;SDS011;63265;48.288;16.314;2022-09-17T18:11:27;1.38;;;0.80;;
74741;SDS011;63265;48.288;16.314;2022-09-17T18:13:55;1.10;;;0.95;;
74741;SDS011;63265;48.288;16.314;2022-09-17T18:16:22;1.17;;;0.80;;
74741;SDS011;63265;48.288;16.314;2022-09-17T18:18:48;0.90;;;0.90;;
74741;SDS011;63265;48.288;16.314;2022-09-17T18:21:15;1.13;;;1.00;;
74741;SDS011;63265;48.288;16.314;2022-09-17T18:23:43;0.90;;;0.90;;
74741;SDS011;63265;48.288;16.314;2022-09-17T18:26:10;1.85;;;1.08;;
74741;SDS011;63265;48.288;16.314;2022-09-17T18:28:38;1.38;;;1.10;;
74741;SDS011;63265;48.288;16.314;2022-09-17T18:31:07;1.33;;;1.02;;
74741;SDS011;63265;48.288;16.314;2022-09-17T18:33:36;4.20;;;1.20;;
74741;SDS011;63265;48.288;16.314;2022-09-17T18:36:02;4.18;;;1.27;;
74741;SDS011;63265;48.288;16.314;2022-09-17T18:38:29;2.28;;;1.10;;
74741;SDS011;63265;48.288;16.314;2022-09-17T18:40:55;4.13;;;1.30;;
74741;SDS011;63265;48.288;16.314;2022-09-17T18:43:27;3.20;;;1.25;;
74741;SDS011;63265;48.288;16.314;2022-09-17T18:45:53;5.57;;;1.35;;
74741;SDS011;63265;48.288;16.314;2022-09-17T18:48:19;3.65;;;1.20;;
74741;SDS011;63265;48.288;16.314;2022-09-17T18:51:20;1.77;;;1.00;;
74741;SDS011;63265;48.288;16.314;2022-09-17T18:53:39;2.10;;;1.30;;
74741;SDS011;63265;48.288;16.314;2022-09-17T18:58:30;2.80;;;1.40;;
74741;SDS011;63265;48.288;16.314;2022-09-17T19:00:56;3.53;;;1.20;;
74741;SDS011;63265;48.288;16.314;2022-09-17T19:03:21;3.28;;;1.38;;
74741;SDS011;63265;48.288;16.314;2022-09-17T19:05:47;2.85;;;1.10;;
74741;SDS011;63265;48.288;16.314;2022-09-17T19:08:13;2.33;;;1.10;;
74741;SDS011;63265;48.288;16.314;2022-09-17T19:10:38;7.07;;;1.30;;
74741;SDS011;63265;48.288;16.314;2022-09-17T19:13:04;2.35;;;1.30;;
74741;SDS011;63265;48.288;16.314;2022-09-17T19:15:29;4.00;;;1.35;;
74741;SDS011;63265;48.288;16.314;2022-09-17T19:17:56;2.53;;;1.02;;
74741;SDS011;63265;48.288;16.314;2022-09-17T19:20:22;2.20;;;1.30;;
74741;SDS011;63265;48.288;16.314;2022-09-17T19:22:49;4.43;;;1.38;;
74741;SDS011;63265;48.288;16.314;2022-09-17T19:25:15;3.78;;;1.20;;
74741;SDS011;63265;48.288;16.314;2022-09-17T19:27:40;6.93;;;1.58;;
74741;SDS011;63265;48.288;16.314;2022-09-17T19:30:06;2.00;;;1.00;;
74741;SDS011;63265;48.288;16.314;2022-09-17T19:32:32;4.40;;;1.25;;
74741;SDS011;63265;48.288;16.314;2022-09-17T19:34:58;4.75;;;1.10;;
74741;SDS011;63265;48.288;16.314;2022-09-17T19:37:24;5.65;;;1.30;;
74741;SDS011;63265;48.288;16.314;2022-09-17T19:39:50;3.80;;;1.20;;
74741;SDS011;63265;48.288;16.314;2022-09-17T19:42:16;2.13;;;1.35;;
74741;SDS011;63265;48.288;16.314;2022-09-17T19:44:41;3.10;;;1.08;;
74741;SDS011;63265;48.288;16.314;2022-09-17T19:47:07;1.30;;;1.10;;
74741;SDS011;63265;48.288;16.314;2022-09-17T19:49:32;3.80;;;1.42;;
74741;SDS011;63265;48.288;16.314;2022-09-17T19:51:58;4.82;;;1.30;;
74741;SDS011;63265;48.288;16.314;2022-09-17T19:54:24;2.35;;;1.10;;
74741;SDS011;63265;48.288;16.314;2022-09-17T19:56:49;2.45;;;1.08;;
74741;SDS011;63265;48.288;16.314;2022-09-17T19:59:15;3.45;;;1.52;;
74741;SDS011;63265;48.288;16.314;2022-09-17T20:01:40;3.33;;;1.20;;
74741;SDS011;63265;48.288;16.314;2022-09-17T20:04:06;4.95;;;1.40;;
74741;SDS011;63265;48.288;16.314;2022-09-17T20:06:32;5.60;;;1.40;;
74741;SDS011;63265;48.288;16.314;2022-09-17T20:08:58;1.98;;;1.20;;
74741;SDS011;63265;48.288;16.314;2022-09-17T20:11:24;3.42;;;1.45;;
74741;SDS011;63265;48.288;16.314;2022-09-17T20:13:57;2.85;;;1.63;;
74741;SDS011;63265;48.288;16.314;2022-09-17T20:16:27;3.30;;;1.38;;
74741;SDS011;63265;48.288;16.314;2022-09-17T20:18:53;2.22;;;1.38;;
74741;SDS011;63265;48.288;16.314;2022-09-17T20:21:20;3.13;;;1.50;;
74741;SDS011;63265;48.288;16.314;2022-09-17T20:23:48;3.90;;;1.60;;
74741;SDS011;63265;48.288;16.314;2022-09-17T20:26:14;3.38;;;1.40;;
74741;SDS011;63265;48.288;16.314;2022-09-17T20:28:41;4.63;;;1.50;;
74741;SDS011;63265;48.288;16.314;2022-09-17T20:31:13;1.50;;;1.30;;
74741;SDS011;63265;48.288;16.314;2022-09-17T20:33:46;3.75;;;1.55;;
74741;SDS011;63265;48.288;16.314;2022-09-17T20:36:16;6.65;;;1.92;;
74741;SDS011;63265;48.288;16.314;2022-09-17T20:38:43;2.92;;;1.27;;
74741;SDS011;63265;48.288;16.314;2022-09-17T20:41:10;3.80;;;1.35;;
74741;SDS011;63265;48.288;16.314;2022-09-17T20:43:37;7.97;;;1.60;;
74741;SDS011;63265;48.288;16.314;2022-09-17T20:46:05;5.45;;;1.80;;
74741;SDS011;63265;48.288;16.314;2022-09-17T20:48:32;17.52;;;2.70;;
74741;SDS011;63265;48.288;16.314;2022-09-17T20:50:59;9.75;;;1.35;;
74741;SDS011;63265;48.288;16.314;2022-09-17T20:53:28;5.47;;;1.60;;
74741;SDS011;63265;48.288;16.314;2022-09-17T20:58:28;11.98;;;1.65;;
